Terminal Aerodrome Forecast
Issued by NWS

Home | Current Version | Previous Version | Text Only | Print | Product List | Glossary On
Versions: 1 2 3 4 5 6 7 8 9 10 11 12 13 14 15 16 17 18 19 20 21 22 23 24 25 26
000
FTUS45 KFGZ 180500 RRA
TAFSEZ
TAF
KSEZ 180541Z 1806/1906 VRB03KT P6SM VCSH BKN006 OVC015
      TEMPO 1806/1808 4SM -SHRA BR SCT006 BKN025
     FM180800 VRB02KT 1SM BR BKN008
     FM181400 VRB03KT 3SM -SHRA BR BKN009 OVC020
     FM181900 24006KT P6SM SCT022 BKN040=

USA.gov is the U.S. government's official web portal to all federal, state and local government web resources and services.